Time;durP1;ratioP1;P1;durP2;ratioP2;P2;SDS_P1;SDS_P2;PMS_P1;PMS_P2;Temp;Humidity;BMP_temperature;BMP_pressure;BME280_temperature;BME280_humidity;BME280_pressure;Samples;Min_cycle;Max_cycle;Signal;HPM_P1;HPM_P2
2023/05/03 00:00:07;;;;;;;9.40;3.40;;;;;;;9.46;64.12;101509.36;105219;1257;72867;-48
2023/05/03 00:02:56;;;;;;;;;;;;;;;9.31;64.13;101507.48;105176;1257;70006;-47
2023/05/03 00:05:25;;;;;;;5.90;2.80;;;;;;;9.15;63.95;101509.95;105260;1261;70297;-47
2023/05/03 00:07:53;;;;;;;8.70;2.80;;;;;;;9.03;64.22;101513.44;105235;1257;73850;-47
2023/05/03 00:10:21;;;;;;;5.20;2.70;;;;;;;8.93;64.29;101516.87;105131;1256;83445;-47
2023/05/03 00:12:49;;;;;;;8.80;3.10;;;;;;;8.84;64.58;101517.34;105276;1256;72829;-47
2023/05/03 00:15:18;;;;;;;9.00;3.10;;;;;;;8.75;64.53;101520.23;105249;1256;69923;-47
2023/05/03 00:17:46;;;;;;;8.60;3.20;;;;;;;8.67;64.54;101519.09;105180;1256;69889;-47
2023/05/03 00:20:14;;;;;;;7.10;4.00;;;;;;;8.55;64.54;101521.85;105170;1257;74738;-47
2023/05/03 00:22:42;;;;;;;10.30;3.50;;;;;;;8.40;64.95;101521.98;105172;1262;83688;-48
2023/05/03 00:25:10;;;;;;;10.40;3.60;;;;;;;8.28;65.19;101525.21;105145;1257;73839;-48
2023/05/03 00:27:39;;;;;;;8.60;3.30;;;;;;;8.16;65.49;101528.98;105136;1256;70459;-47
2023/05/03 00:30:09;;;;;;;8.20;3.60;;;;;;;8.06;65.83;101529.77;105219;1262;70005;-47
2023/05/03 00:32:37;;;;;;;9.00;4.00;;;;;;;7.97;66.12;101529.31;105201;1257;74952;-47
2023/05/03 00:35:06;;;;;;;12.60;4.00;;;;;;;7.88;66.05;101531.31;105144;1256;83202;-47
2023/05/03 00:37:35;;;;;;;9.80;3.60;;;;;;;7.78;66.27;101531.21;105150;1261;73764;-47
2023/05/03 00:40:04;;;;;;;11.00;4.20;;;;;;;7.73;66.19;101534.20;105095;1257;69996;-47
2023/05/03 00:42:35;;;;;;;9.90;3.60;;;;;;;7.64;66.35;101532.71;105237;1255;69998;-47
2023/05/03 00:45:04;;;;;;;9.10;4.10;;;;;;;7.57;66.83;101537.27;105094;1262;74937;-53
2023/05/03 00:47:35;;;;;;;11.60;4.20;;;;;;;7.50;66.60;101539.74;105202;1260;83327;-47
2023/05/03 00:50:04;;;;;;;12.30;4.50;;;;;;;7.42;67.05;101541.19;105206;1256;73077;-46
2023/05/03 00:52:33;;;;;;;12.10;4.10;;;;;;;7.37;67.34;101538.77;105185;1256;70277;-47
2023/05/03 00:55:02;;;;;;;8.10;3.90;;;;;;;7.29;67.34;101543.17;105178;1262;70021;-46
2023/05/03 00:57:30;;;;;;;8.40;4.10;;;;;;;7.24;67.43;101540.77;105100;1261;74885;-47
2023/05/03 00:59:58;;;;;;;8.20;4.40;;;;;;;7.18;67.72;101538.88;105115;1262;82475;-47
2023/05/03 01:02:27;;;;;;;9.00;3.90;;;;;;;7.11;67.95;101539.60;105234;1257;72762;-47
2023/05/03 01:04:55;;;;;;;10.70;4.30;;;;;;;7.05;67.90;101541.02;105214;1257;70090;-47
2023/05/03 01:07:47;;;;;;;10.10;4.20;;;;;;;7.00;67.92;101542.95;105138;1262;70009;-47
2023/05/03 01:10:37;;;;;;;8.20;4.00;;;;;;;6.96;68.25;101545.39;105117;1256;74930;-47
2023/05/03 01:13:17;;;;;;;8.60;3.70;;;;;;;6.87;68.42;101543.86;105185;1260;82985;-47
2023/05/03 01:16:18;;;;;;;10.70;4.60;;;;;;;6.83;68.23;101545.98;105195;1256;73693;-47
2023/05/03 01:18:48;;;;;;;7.00;4.10;;;;;;;6.76;68.66;101546.70;105206;1256;69997;-47
2023/05/03 01:21:17;;;;;;;9.20;4.00;;;;;;;6.71;68.65;101543.57;105064;1257;70015;-47
2023/05/03 01:24:17;;;;;;;8.00;3.70;;;;;;;6.65;68.68;101547.06;105168;1260;75092;-47
2023/05/03 01:26:45;;;;;;;13.50;4.30;;;;;;;6.59;68.82;101552.30;105181;1256;82415;-47
2023/05/03 01:29:13;;;;;;;8.80;3.90;;;;;;;6.53;68.88;101554.04;105116;1261;73716;-47
2023/05/03 01:31:53;;;;;;;7.80;4.50;;;;;;;6.47;68.98;101554.22;105178;1262;69996;-47
2023/05/03 01:34:50;;;;;;;9.20;4.00;;;;;;;6.41;69.16;101554.23;105124;1262;69961;-48
2023/05/03 01:37:19;;;;;;;10.60;4.20;;;;;;;6.35;69.24;101555.45;105212;1261;74199;-47
2023/05/03 01:39:55;;;;;;;8.40;3.60;;;;;;;6.31;69.45;101552.16;105096;1257;83561;-47
2023/05/03 01:42:23;;;;;;;11.70;3.90;;;;;;;6.27;69.73;101563.44;105102;1257;72847;-47
2023/05/03 01:44:53;;;;;;;7.90;4.20;;;;;;;6.22;69.73;101562.41;105032;1257;69919;-47
2023/05/03 01:47:21;;;;;;;9.60;4.00;;;;;;;6.18;69.93;101564.66;105202;1256;70005;-47
2023/05/03 01:49:50;;;;;;;8.50;4.30;;;;;;;6.14;70.09;101561.20;105112;1262;74825;-46
2023/05/03 01:52:18;;;;;;;9.10;3.80;;;;;;;6.09;70.06;101563.29;105147;1261;82563;-47
2023/05/03 01:54:46;;;;;;;8.10;4.20;;;;;;;6.06;70.10;101565.36;105175;1260;73069;-47
2023/05/03 01:57:14;;;;;;;8.20;4.20;;;;;;;6.02;70.23;101565.87;105074;1262;70046;-47
2023/05/03 01:59:43;;;;;;;14.20;4.40;;;;;;;5.99;70.40;101565.53;105128;1257;69947;-46
2023/05/03 02:02:11;;;;;;;7.80;3.60;;;;;;;5.96;70.27;101564.14;105033;1262;73659;-46
2023/05/03 02:04:41;;;;;;;8.30;3.80;;;;;;;5.93;70.48;101560.29;105239;1260;84342;-47
2023/05/03 02:07:09;;;;;;;7.90;3.70;;;;;;;5.91;70.60;101561.85;105203;1255;73934;-47
2023/05/03 02:09:38;;;;;;;9.00;4.10;;;;;;;5.91;70.78;101558.04;105159;1256;70027;-47
2023/05/03 02:12:06;;;;;;;9.50;3.90;;;;;;;5.91;70.69;101553.35;105101;1257;69967;-47
2023/05/03 02:14:35;;;;;;;8.90;3.60;;;;;;;5.91;71.04;101560.28;105071;1257;73976;-47
2023/05/03 02:17:03;;;;;;;7.20;3.90;;;;;;;5.90;71.01;101564.63;105151;1257;82491;-46
2023/05/03 02:19:32;;;;;;;10.20;4.50;;;;;;;5.87;70.89;101566.18;105169;1257;72648;-47
2023/05/03 02:22:00;;;;;;;8.40;4.20;;;;;;;5.84;70.72;101568.44;105189;1256;69925;-48
2023/05/03 02:24:29;;;;;;;8.50;3.90;;;;;;;5.79;70.74;101566.34;105153;1262;69990;-47
2023/05/03 02:26:58;;;;;;;11.30;3.80;;;;;;;5.77;70.89;101563.05;105186;1256;74987;-47
2023/05/03 02:29:26;;;;;;;9.70;3.90;;;;;;;5.74;70.97;101560.79;105094;1260;83530;-47
2023/05/03 02:31:54;;;;;;;8.60;4.20;;;;;;;5.74;70.98;101560.27;105174;1260;73998;-47
2023/05/03 02:34:23;;;;;;;8.80;3.90;;;;;;;5.73;71.08;101562.34;105065;1262;70099;-50
2023/05/03 02:36:51;;;;;;;8.80;3.70;;;;;;;5.73;71.22;101559.23;105251;1260;69817;-50
2023/05/03 02:39:20;;;;;;;12.20;4.00;;;;;;;5.74;71.26;101562.52;105166;1262;75216;-49
2023/05/03 02:41:50;;;;;;;8.40;4.00;;;;;;;5.74;71.09;101561.66;105302;1261;81686;-49
2023/05/03 02:44:19;;;;;;;9.10;3.50;;;;;;;5.71;71.15;101561.83;105179;1261;74150;-49
2023/05/03 02:46:47;;;;;;;8.10;3.50;;;;;;;5.69;71.06;101559.91;105174;1256;69878;-47
2023/05/03 02:49:16;;;;;;;9.20;4.40;;;;;;;5.67;71.11;101564.41;105104;1256;69963;-48
2023/05/03 02:51:44;;;;;;;12.00;3.80;;;;;;;5.65;71.23;101565.64;105208;1262;74870;-48
2023/05/03 02:54:13;;;;;;;7.30;4.00;;;;;;;5.60;71.10;101565.80;105244;1257;83804;-48
2023/05/03 02:56:41;;;;;;;8.60;3.60;;;;;;;5.52;71.11;101571.48;105213;1261;72829;-48
2023/05/03 02:59:10;;;;;;;11.70;4.30;;;;;;;5.47;71.16;101569.39;105025;1262;70226;-46
2023/05/03 03:01:38;;;;;;;9.30;3.90;;;;;;;5.44;71.40;101571.65;105230;1257;69929;-46
2023/05/03 03:04:08;;;;;;;11.60;4.20;;;;;;;5.43;71.50;101572.52;105209;1261;75017;-48
2023/05/03 03:06:36;;;;;;;9.10;4.20;;;;;;;5.39;71.39;101568.87;105207;1260;83734;-46
2023/05/03 03:09:05;;;;;;;8.00;4.00;;;;;;;5.33;71.40;101574.22;105058;1257;74319;-48
2023/05/03 03:11:35;;;;;;;10.10;4.10;;;;;;;5.28;71.47;101573.15;105184;1260;69915;-47
2023/05/03 03:14:03;;;;;;;6.90;3.80;;;;;;;5.23;71.58;101573.16;105208;1258;70013;-47
2023/05/03 03:16:31;;;;;;;11.80;3.70;;;;;;;5.20;71.73;101572.77;105099;1262;74913;-47
2023/05/03 03:18:59;;;;;;;7.50;3.50;;;;;;;5.19;71.96;101576.42;105190;1257;82947;-47
2023/05/03 03:21:28;;;;;;;10.50;3.80;;;;;;;5.19;72.02;101576.41;105088;1256;73375;-47
2023/05/03 03:23:56;;;;;;;15.90;4.50;;;;;;;5.22;72.27;101580.23;105003;1262;70023;-47
2023/05/03 03:26:25;;;;;;;8.50;3.80;;;;;;;5.26;72.28;101579.39;105116;1262;69906;-47
2023/05/03 03:28:53;;;;;;;12.00;3.90;;;;;;;5.29;72.48;101584.26;105154;1260;74954;-48
2023/05/03 03:31:22;;;;;;;6.70;3.90;;;;;;;5.34;72.54;101585.48;105202;1260;83484;-49
2023/05/03 03:33:50;;;;;;;7.30;3.20;;;;;;;5.38;72.57;101585.85;105205;1260;72887;-47
2023/05/03 03:36:19;;;;;;;8.10;3.90;;;;;;;5.46;72.79;101586.22;105069;1260;70000;-47
2023/05/03 03:38:48;;;;;;;12.10;3.90;;;;;;;5.55;72.75;101588.49;105246;1261;69990;-46
2023/05/03 03:41:16;;;;;;;10.30;3.80;;;;;;;5.62;72.74;101590.41;105181;1261;74336;-47
2023/05/03 03:43:45;;;;;;;10.60;4.60;;;;;;;5.68;72.70;101589.73;105193;1262;83864;-48
2023/05/03 03:46:15;;;;;;;;;;;;;;;5.74;72.61;101594.43;105162;1263;73771;-48
2023/05/03 03:48:44;;;;;;;8.30;3.80;;;;;;;5.79;72.40;101593.23;105166;1257;69973;-47
2023/05/03 03:51:12;;;;;;;9.80;3.60;;;;;;;5.82;72.42;101596.19;105157;1256;69880;-48
2023/05/03 03:53:43;;;;;;;8.50;3.50;;;;;;;5.87;72.21;101600.54;105133;1262;73965;-48
2023/05/03 03:56:12;;;;;;;11.10;4.00;;;;;;;5.90;72.35;101602.61;105163;1259;83490;-47
2023/05/03 03:58:41;;;;;;;9.00;3.70;;;;;;;5.94;72.43;101605.06;105151;1257;73417;-48
2023/05/03 04:01:11;;;;;;;8.60;3.70;;;;;;;5.99;72.20;101606.30;105171;1261;70086;-48
2023/05/03 04:03:39;;;;;;;8.10;3.90;;;;;;;6.05;72.23;101602.83;105217;1260;69968;-47
2023/05/03 04:06:07;;;;;;;11.70;4.00;;;;;;;6.08;72.19;101608.04;105083;1263;74134;-47
2023/05/03 04:08:36;;;;;;;7.90;3.50;;;;;;;6.09;71.90;101610.64;105110;1262;83467;-47
2023/05/03 04:11:10;;;;;;;9.60;3.50;;;;;;;6.13;72.09;101611.00;105142;1262;73513;-48
2023/05/03 04:13:42;;;;;;;9.90;3.40;;;;;;;6.16;71.81;101615.52;105129;1261;69993;-47
2023/05/03 04:16:10;;;;;;;8.80;3.90;;;;;;;6.16;71.80;101620.56;105171;1258;69932;-48
2023/05/03 04:18:40;;;;;;;9.70;3.50;;;;;;;6.18;71.74;101626.28;105137;1262;74827;-47
2023/05/03 04:21:08;;;;;;;9.50;3.50;;;;;;;6.21;71.93;101631.30;105182;1265;83779;-47
2023/05/03 04:23:37;;;;;;;9.40;3.50;;;;;;;6.25;71.52;101634.09;105097;1262;73983;-48
2023/05/03 04:26:06;;;;;;;8.40;3.60;;;;;;;6.28;71.63;101639.65;105142;1262;69821;-47
2023/05/03 04:28:47;;;;;;;8.10;3.60;;;;;;;6.33;71.64;101641.56;105138;1262;69891;-47
2023/05/03 04:31:15;;;;;;;8.50;3.30;;;;;;;6.37;71.42;101645.90;105172;1258;74406;-47
2023/05/03 04:33:44;;;;;;;10.70;3.50;;;;;;;6.42;71.63;101651.30;105145;1257;81552;-47
2023/05/03 04:36:14;;;;;;;9.30;3.40;;;;;;;6.46;71.59;101652.84;105092;1264;72765;-47
2023/05/03 04:38:45;;;;;;;12.30;3.70;;;;;;;6.51;71.62;101654.06;105070;1262;70021;-47
2023/05/03 04:41:13;;;;;;;7.80;3.40;;;;;;;6.54;71.49;101657.20;105172;1257;69997;-47
2023/05/03 04:43:46;;;;;;;6.50;3.40;;;;;;;6.60;71.46;101656.31;105067;1263;74887;-47
2023/05/03 04:46:17;;;;;;;10.10;3.50;;;;;;;6.65;71.23;101659.42;105090;1257;83449;-47
2023/05/03 04:48:45;;;;;;;9.00;3.60;;;;;;;6.72;71.48;101663.42;105080;1260;74073;-48
2023/05/03 04:51:14;;;;;;;10.50;3.50;;;;;;;6.76;71.15;101666.91;105189;1257;69902;-47
2023/05/03 04:53:42;;;;;;;7.80;3.70;;;;;;;6.80;71.20;101670.02;105105;1263;70000;-47
2023/05/03 04:56:15;;;;;;;7.90;3.90;;;;;;;6.87;71.18;101672.61;105056;1262;74329;-48
2023/05/03 04:58:43;;;;;;;7.60;3.60;;;;;;;6.93;70.80;101675.73;105205;1263;81618;-48
2023/05/03 05:01:13;;;;;;;10.50;3.60;;;;;;;6.98;71.22;101680.25;105029;1263;71690;-48
2023/05/03 05:03:41;;;;;;;7.00;3.30;;;;;;;7.05;71.00;101683.37;105135;1260;69990;-47
2023/05/03 05:06:14;;;;;;;8.40;4.20;;;;;;;7.10;70.59;101683.00;105156;1257;69907;-47
2023/05/03 05:08:42;;;;;;;12.20;3.80;;;;;;;7.18;70.52;101682.80;105149;1264;73848;-48
2023/05/03 05:11:13;;;;;;;6.00;2.90;;;;;;;7.27;70.36;101682.79;105133;1262;83492;-47
2023/05/03 05:13:41;;;;;;;5.80;2.90;;;;;;;7.35;70.00;101675.98;105038;1264;73962;-48
2023/05/03 05:16:10;;;;;;;9.00;3.40;;;;;;;7.43;69.78;101680.13;105001;1264;70008;-47
2023/05/03 05:18:40;;;;;;;8.90;3.50;;;;;;;7.48;69.47;101678.55;105108;1263;69978;-47
2023/05/03 05:21:10;;;;;;;6.80;3.50;;;;;;;7.56;69.73;101685.30;105229;1260;73916;-47
2023/05/03 05:23:39;;;;;;;11.60;3.70;;;;;;;7.65;69.46;101688.74;105221;1260;83419;-47
2023/05/03 05:26:07;;;;;;;8.70;3.30;;;;;;;7.73;69.11;101687.31;105093;1260;73974;-47
2023/05/03 05:28:39;;;;;;;9.70;3.50;;;;;;;7.79;69.28;101686.59;105140;1260;69931;-47
2023/05/03 05:31:07;;;;;;;8.80;3.30;;;;;;;7.87;69.34;101688.27;105159;1261;70009;-48
2023/05/03 05:33:36;;;;;;;9.80;3.90;;;;;;;7.94;68.87;101687.56;105188;1270;73419;-47
2023/05/03 05:36:05;;;;;;;8.50;3.30;;;;;;;8.00;68.81;101694.66;105188;1260;83147;-46
2023/05/03 05:38:33;;;;;;;12.50;3.70;;;;;;;8.06;68.85;101694.45;105063;1260;73755;-47
2023/05/03 05:41:02;;;;;;;9.20;3.60;;;;;;;8.09;68.10;101699.65;105171;1260;70326;-46
2023/05/03 05:43:33;;;;;;;8.50;3.60;;;;;;;8.13;68.23;101706.26;105248;1258;70031;-48
2023/05/03 05:46:02;;;;;;;7.20;3.60;;;;;;;8.14;68.17;101703.45;105179;1260;73981;-48
2023/05/03 05:48:31;;;;;;;8.40;3.40;;;;;;;8.15;67.96;101702.91;105083;1262;83309;-47
2023/05/03 05:50:59;;;;;;;8.40;3.70;;;;;;;8.20;68.03;101706.38;105192;1260;73937;-48
2023/05/03 05:53:28;;;;;;;9.50;3.70;;;;;;;8.23;67.84;101709.14;105268;1261;69934;-48
2023/05/03 05:55:59;;;;;;;8.10;3.90;;;;;;;8.26;67.30;101712.25;105185;1258;70274;-46
2023/05/03 05:58:28;;;;;;;8.40;3.00;;;;;;;8.32;67.07;101715.88;105216;1262;75109;-47
2023/05/03 06:01:00;;;;;;;6.60;3.30;;;;;;;8.38;67.13;101716.89;105211;1258;82385;-48
2023/05/03 06:03:28;;;;;;;6.10;3.30;;;;;;;8.42;66.95;101718.27;105224;1256;71766;-47
2023/05/03 06:05:57;;;;;;;5.90;2.80;;;;;;;8.45;66.71;101722.79;105175;1262;69843;-47
2023/05/03 06:08:25;;;;;;;6.70;3.20;;;;;;;8.49;66.43;101726.94;105234;1263;70355;-47
2023/05/03 06:10:54;;;;;;;10.00;3.20;;;;;;;8.52;66.55;101721.34;105214;1260;74632;-47
2023/05/03 06:13:23;;;;;;;8.50;3.60;;;;;;;8.57;66.60;101727.93;105280;1261;82849;-47
2023/05/03 06:15:52;;;;;;;7.60;3.20;;;;;;;8.59;66.29;101728.77;105434;1258;72979;-48
2023/05/03 06:18:21;;;;;;;7.60;3.20;;;;;;;8.61;66.32;101732.96;105276;1260;70220;-48
2023/05/03 06:20:49;;;;;;;8.90;3.30;;;;;;;8.64;66.02;101733.45;105342;1261;69874;-47
2023/05/03 06:23:19;;;;;;;10.10;3.50;;;;;;;8.69;66.37;101735.48;105361;1260;73545;-47
2023/05/03 06:25:48;;;;;;;6.80;3.30;;;;;;;8.74;66.16;101736.70;105337;1257;84400;-47
2023/05/03 06:28:17;;;;;;;9.50;3.30;;;;;;;8.74;65.95;101735.30;105420;1260;74017;-47
2023/05/03 06:30:49;;;;;;;7.10;3.00;;;;;;;8.76;66.15;101737.52;105494;1261;70018;-47
2023/05/03 06:33:17;;;;;;;14.70;3.30;;;;;;;8.80;65.61;101741.52;105349;1259;69843;-47
2023/05/03 06:35:48;;;;;;;;;;;;;;;8.80;65.27;101742.21;105260;1261;75243;-47
2023/05/03 06:38:18;;;;;;;4.40;2.70;;;;;;;8.82;65.69;101745.33;105378;1260;84241;-49
2023/05/03 06:40:47;;;;;;;8.30;3.00;;;;;;;8.86;65.54;101742.85;105395;1256;72748;-50
2023/05/03 06:43:15;;;;;;;6.30;3.00;;;;;;;8.90;65.29;101747.88;105327;1256;69995;-46
2023/05/03 06:45:51;;;;;;;7.20;3.10;;;;;;;8.93;65.49;101746.11;105244;1260;69964;-46
2023/05/03 06:48:20;;;;;;;8.10;3.30;;;;;;;8.99;65.36;101743.98;105461;1259;73251;-47
2023/05/03 06:50:49;;;;;;;8.30;3.20;;;;;;;9.08;65.74;101742.31;105485;1257;82600;-47
2023/05/03 06:53:17;;;;;;;9.30;3.10;;;;;;;9.18;65.81;101743.61;105280;1258;74361;-46
2023/05/03 06:55:46;;;;;;;7.50;2.70;;;;;;;9.27;65.66;101743.52;105267;1261;70036;-47
2023/05/03 06:58:15;;;;;;;8.80;3.20;;;;;;;9.35;65.20;101746.58;105357;1257;69893;-47
2023/05/03 07:00:44;;;;;;;9.20;3.40;;;;;;;9.38;64.77;101746.55;105370;1259;74367;-46
2023/05/03 07:03:12;;;;;;;6.80;3.00;;;;;;;9.38;64.59;101746.73;105224;1259;83029;-47
2023/05/03 07:05:41;;;;;;;8.10;2.90;;;;;;;9.39;64.62;101745.84;105373;1257;72672;-46
2023/05/03 07:08:09;;;;;;;7.10;3.20;;;;;;;9.42;64.51;101745.80;105193;1257;70019;-47
2023/05/03 07:10:37;;;;;;;8.60;3.00;;;;;;;9.48;64.49;101748.02;105297;1257;69890;-47
2023/05/03 07:13:05;;;;;;;5.90;3.40;;;;;;;9.56;64.65;101741.81;105391;1257;74842;-48
2023/05/03 07:15:33;;;;;;;10.80;3.50;;;;;;;9.65;64.25;101740.50;105471;1260;83789;-47
2023/05/03 07:18:02;;;;;;;9.10;3.20;;;;;;;9.69;64.19;101737.64;105254;1258;73715;-46
2023/05/03 07:20:30;;;;;;;6.70;2.60;;;;;;;9.75;63.81;101738.80;105396;1257;70568;-47
2023/05/03 07:23:00;;;;;;;5.30;2.50;;;;;;;9.82;63.57;101738.36;105312;1259;69986;-51
2023/05/03 07:25:29;;;;;;;6.90;2.50;;;;;;;9.92;63.45;101736.67;105344;1257;74485;-47
2023/05/03 07:27:57;;;;;;;6.80;2.40;;;;;;;10.02;63.16;101731.46;105517;1257;82859;-47
2023/05/03 07:30:26;;;;;;;5.70;2.40;;;;;;;10.19;62.85;101737.87;105338;1257;73579;-46
2023/05/03 07:32:54;;;;;;;6.60;2.50;;;;;;;10.37;62.34;101736.41;105379;1258;69989;-46
2023/05/03 07:35:22;;;;;;;5.60;2.50;;;;;;;10.53;61.82;101738.45;105401;1261;69996;-46
2023/05/03 07:37:51;;;;;;;5.90;2.50;;;;;;;10.69;61.42;101742.40;105325;1258;75050;-46
2023/05/03 07:40:19;;;;;;;6.90;2.40;;;;;;;10.91;61.58;101740.29;105621;1260;82073;-47
2023/05/03 07:42:47;;;;;;;5.70;2.30;;;;;;;11.17;60.88;101741.58;105261;1260;74148;-46
2023/05/03 07:45:16;;;;;;;5.30;2.30;;;;;;;11.49;60.52;101744.13;105273;1260;69957;-46
2023/05/03 07:47:44;;;;;;;7.10;2.10;;;;;;;11.76;59.98;101736.59;105329;1258;69853;-46
2023/05/03 07:50:12;;;;;;;5.80;2.00;;;;;;;11.98;59.02;101735.11;105443;1261;74942;-46
2023/05/03 07:52:42;;;;;;;7.60;2.10;;;;;;;12.10;58.32;101735.91;105152;1257;82762;-46
2023/05/03 07:55:10;;;;;;;4.90;2.20;;;;;;;12.20;57.46;101734.10;105251;1257;73714;-45
2023/05/03 07:57:38;;;;;;;3.00;1.60;;;;;;;12.25;56.74;101740.63;105286;1257;70316;-47
2023/05/03 08:00:09;;;;;;;6.10;2.00;;;;;;;12.27;56.06;101740.06;105160;1258;69878;-46
2023/05/03 08:02:41;;;;;;;7.50;1.80;;;;;;;12.25;55.65;101738.38;105339;1261;74829;-46
2023/05/03 08:05:12;;;;;;;5.00;1.80;;;;;;;12.25;55.54;101735.90;105237;1260;83898;-45
2023/05/03 08:07:40;;;;;;;5.30;1.80;;;;;;;12.29;55.29;101741.09;105244;1261;73824;-46
2023/05/03 08:10:09;;;;;;;3.90;1.70;;;;;;;12.32;54.68;101741.38;105313;1262;70025;-45
2023/05/03 08:12:38;;;;;;;6.10;1.60;;;;;;;12.33;53.78;101739.06;105393;1257;69881;-46
2023/05/03 08:15:07;;;;;;;7.10;1.60;;;;;;;12.37;53.38;101738.26;105275;1260;74820;-47
2023/05/03 08:17:40;;;;;;;4.40;1.70;;;;;;;12.43;52.86;101739.70;105285;1260;82454;-46
2023/05/03 08:20:09;;;;;;;6.30;1.70;;;;;;;12.57;52.78;101742.88;105180;1257;73915;-46
2023/05/03 08:22:39;;;;;;;5.80;2.00;;;;;;;12.72;52.33;101739.55;105274;1263;69996;-47
2023/05/03 08:25:08;;;;;;;6.50;1.60;;;;;;;12.82;51.68;101738.94;105417;1258;69879;-48
2023/05/03 08:27:37;;;;;;;4.10;1.70;;;;;;;12.90;51.68;101738.91;105392;1260;74719;-45
2023/05/03 08:30:07;;;;;;;5.60;1.60;;;;;;;13.00;51.41;101743.76;105306;1258;82512;-46
2023/05/03 08:32:35;;;;;;;7.70;1.80;;;;;;;13.06;50.92;101742.89;105239;1270;73078;-46
2023/05/03 08:35:06;;;;;;;6.00;1.60;;;;;;;13.13;50.46;101746.05;105169;1257;70456;-46
2023/05/03 08:37:39;;;;;;;4.30;1.70;;;;;;;13.18;50.10;101746.27;105232;1260;70415;-45
2023/05/03 08:40:12;;;;;;;6.10;1.90;;;;;;;13.22;50.08;101747.04;105253;1260;75054;-46
2023/05/03 08:42:42;;;;;;;7.90;2.30;;;;;;;13.25;49.80;101744.52;105197;1261;82127;-46
2023/05/03 08:45:14;;;;;;;5.20;1.70;;;;;;;13.28;49.53;101744.80;105229;1257;72604;-48
2023/05/03 08:47:43;;;;;;;4.00;1.40;;;;;;;13.31;49.14;101749.45;105206;1258;69976;-46
2023/05/03 08:50:14;;;;;;;6.10;1.80;;;;;;;13.34;48.81;101747.81;105201;1261;69888;-47
2023/05/03 08:52:43;;;;;;;5.90;1.90;;;;;;;13.37;48.54;101749.48;105311;1258;73766;-46
2023/05/03 08:55:11;;;;;;;5.00;1.70;;;;;;;13.45;48.33;101748.55;105307;1257;82604;-46
2023/05/03 08:57:40;;;;;;;3.30;1.50;;;;;;;13.63;48.96;101747.54;105260;1258;73880;-46
2023/05/03 09:00:11;;;;;;;4.80;2.00;;;;;;;13.91;48.98;101747.59;105229;1257;70008;-46
2023/05/03 09:02:40;;;;;;;5.20;2.00;;;;;;;14.15;48.56;101750.59;105305;1256;69993;-46
2023/05/03 09:05:15;;;;;;;5.50;1.70;;;;;;;14.29;48.23;101751.03;105222;1258;73849;-46
2023/05/03 09:08:16;;;;;;;6.00;1.90;;;;;;;14.41;47.91;101744.35;105213;1259;83478;-46
2023/05/03 09:10:44;;;;;;;5.70;1.60;;;;;;;14.59;47.80;101747.65;104989;1260;72959;-46
2023/05/03 09:13:13;;;;;;;5.20;2.00;;;;;;;14.88;47.81;101747.23;105357;1259;69925;-46
2023/05/03 09:15:43;;;;;;;6.20;1.70;;;;;;;15.16;47.64;101749.64;105474;1257;69894;-46
2023/05/03 09:18:11;;;;;;;5.60;2.20;;;;;;;15.37;47.15;101753.46;105326;1258;76122;-46
2023/05/03 09:20:41;;;;;;;5.00;2.10;;;;;;;15.44;46.34;101752.34;105269;1260;83490;-46
2023/05/03 09:23:09;;;;;;;6.90;2.10;;;;;;;15.46;46.01;101750.67;105380;1259;73537;-44
2023/05/03 09:25:45;;;;;;;4.80;1.90;;;;;;;15.47;45.58;101753.45;105298;1257;69880;-44
2023/05/03 09:28:14;;;;;;;5.10;1.60;;;;;;;15.47;45.65;101753.66;105431;1259;70028;-44
2023/05/03 09:30:43;;;;;;;6.60;1.80;;;;;;;15.45;45.21;101753.01;105402;1256;74992;-46
2023/05/03 09:33:19;;;;;;;5.30;2.40;;;;;;;15.23;44.69;101749.38;105254;1259;83705;-46
2023/05/03 09:36:02;;;;;;;5.80;1.80;;;;;;;15.12;44.88;101751.15;105294;1256;73888;-46
2023/05/03 09:38:33;;;;;;;4.90;1.80;;;;;;;15.17;44.75;101749.95;105267;1258;70044;-47
2023/05/03 09:41:04;;;;;;;6.50;1.90;;;;;;;15.24;44.85;101744.76;105389;1257;70099;-46
2023/05/03 09:43:34;;;;;;;6.30;2.60;;;;;;;15.41;44.84;101742.55;105516;1259;74695;-44
2023/05/03 09:46:08;;;;;;;6.00;1.80;;;;;;;15.69;45.19;101735.23;105362;1257;83763;-45
2023/05/03 09:48:37;;;;;;;5.70;1.90;;;;;;;16.02;44.57;101732.06;105216;1257;73093;-44
2023/05/03 09:51:06;;;;;;;6.40;1.80;;;;;;;16.14;44.04;101730.89;105407;1257;69995;-45
2023/05/03 09:53:36;;;;;;;5.00;1.60;;;;;;;16.20;43.54;101731.00;105538;1258;69991;-45
2023/05/03 09:56:15;;;;;;;6.00;2.20;;;;;;;16.27;43.47;101730.90;105469;1259;73807;-46
2023/05/03 09:58:43;;;;;;;4.80;1.70;;;;;;;16.17;42.82;101730.23;105455;1259;83722;-45
2023/05/03 10:01:13;;;;;;;5.40;1.50;;;;;;;15.93;42.61;101734.67;105381;1257;73471;-46
2023/05/03 10:03:49;;;;;;;5.00;1.90;;;;;;;15.94;42.58;101732.05;105532;1256;69982;-44
2023/05/03 10:06:28;;;;;;;5.30;1.90;;;;;;;16.04;42.24;101724.94;105268;1254;69887;-44
2023/05/03 10:09:32;;;;;;;5.70;1.70;;;;;;;16.27;42.17;101726.52;105273;1259;75300;-45
2023/05/03 10:12:03;;;;;;;3.10;1.40;;;;;;;16.52;41.64;101722.52;105216;1257;83577;-44
2023/05/03 10:14:32;;;;;;;6.70;1.60;;;;;;;16.79;41.45;101716.65;105313;1256;73914;-44
2023/05/03 10:17:07;;;;;;;4.50;1.70;;;;;;;17.08;41.53;101710.27;105484;1258;69917;-44
2023/05/03 10:19:49;;;;;;;4.00;1.50;;;;;;;17.34;41.51;101711.44;105491;1256;69996;-44
2023/05/03 10:22:17;;;;;;;4.40;1.90;;;;;;;17.34;41.19;101710.73;105417;1260;74924;-45
2023/05/03 10:25:01;;;;;;;6.60;2.00;;;;;;;17.24;40.67;101709.58;105482;1260;84206;-45
2023/05/03 10:27:41;;;;;;;8.30;2.10;;;;;;;16.87;40.36;101713.11;105480;1260;73113;-45
2023/05/03 10:30:25;;;;;;;4.70;1.90;;;;;;;16.69;40.31;101710.49;105356;1258;69826;-45
2023/05/03 10:32:53;;;;;;;6.70;2.30;;;;;;;16.91;40.33;101705.36;105387;1259;70098;-46
2023/05/03 10:35:26;;;;;;;5.50;1.80;;;;;;;17.19;40.52;101704.32;105437;1258;73928;-45
2023/05/03 10:37:58;;;;;;;4.00;1.90;;;;;;;17.54;40.16;101705.40;105488;1259;83128;-45
2023/05/03 10:40:40;;;;;;;5.90;1.50;;;;;;;17.96;39.88;101698.73;105450;1259;74064;-47
2023/05/03 10:43:27;;;;;;;4.40;1.70;;;;;;;18.27;39.26;101694.23;105378;1257;69983;-46
2023/05/03 10:45:57;;;;;;;5.60;1.60;;;;;;;18.49;38.96;101689.79;105498;1256;70002;-45
2023/05/03 10:48:27;;;;;;;4.80;1.70;;;;;;;18.83;39.61;101693.95;105507;1259;74057;-45
2023/05/03 10:50:56;;;;;;;4.50;1.80;;;;;;;19.02;38.98;101695.86;105407;1257;83172;-45
2023/05/03 10:53:40;;;;;;;5.60;1.50;;;;;;;18.85;38.63;101702.38;105510;1257;73670;-45
2023/05/03 10:56:10;;;;;;;4.90;1.90;;;;;;;19.02;38.30;101704.16;105417;1256;69995;-44
2023/05/03 10:58:42;;;;;;;3.50;1.60;;;;;;;18.77;37.64;101697.96;105421;1257;69986;-46
2023/05/03 11:01:12;;;;;;;5.10;1.70;;;;;;;18.61;37.67;101697.71;105340;1257;75051;-46
2023/05/03 11:04:31;;;;;;;4.80;1.90;;;;;;;18.42;37.53;101693.86;105397;1257;83455;-46
2023/05/03 11:07:00;;;;;;;4.60;1.90;;;;;;;18.16;37.42;101696.38;105217;1257;73781;-45
2023/05/03 11:09:33;;;;;;;4.70;1.50;;;;;;;18.41;37.89;101701.02;105442;1257;70002;-46
2023/05/03 11:12:07;;;;;;;2.60;1.60;;;;;;;18.74;37.42;101696.20;105533;1255;70065;-45
2023/05/03 11:14:36;;;;;;;3.50;1.60;;;;;;;19.15;37.84;101691.77;105532;1257;74897;-46
2023/05/03 11:17:04;;;;;;;3.60;1.60;;;;;;;19.65;37.96;101692.14;105455;1258;84034;-45
2023/05/03 11:19:34;;;;;;;4.20;1.80;;;;;;;19.95;36.85;101692.63;105408;1259;73417;-45
2023/05/03 11:22:02;;;;;;;4.20;1.70;;;;;;;20.16;36.59;101687.03;105492;1259;69948;-45
2023/05/03 11:24:30;;;;;;;6.40;2.00;;;;;;;20.37;36.42;101687.39;105372;1257;69989;-47
2023/05/03 11:26:59;;;;;;;7.10;1.50;;;;;;;20.71;36.51;101680.32;105356;1259;75348;-45
2023/05/03 11:29:35;;;;;;;5.50;1.90;;;;;;;21.14;36.16;101682.00;105338;1259;83399;-45
2023/05/03 11:32:03;;;;;;;3.80;1.50;;;;;;;21.44;35.76;101685.16;105474;1260;73904;-46
2023/05/03 11:34:32;;;;;;;3.80;1.40;;;;;;;21.66;34.73;101687.31;105254;1257;170538;-46
2023/05/03 11:37:01;;;;;;;4.60;1.60;;;;;;;21.79;34.53;101683.29;105375;1259;70001;-45